Time;durP1;ratioP1;P1;durP2;ratioP2;P2;SDS_P1;SDS_P2;PMS_P1;PMS_P2;Temp;Humidity;BMP_temperature;BMP_pressure;BME280_temperature;BME280_humidity;BME280_pressure;Samples;Min_cycle;Max_cycle;Signal;HPM_P1;HPM_P2
2024/03/06 00:01:58;;;;;;;12.47;9.63;;;;;;;;;;4938038;28;20275;-80
2024/03/06 00:04:26;;;;;;;12.90;10.10;;;;;;;;;;4923199;29;20227;-80
2024/03/06 00:06:55;;;;;;;11.57;10.37;;;;;;;;;;4928176;28;20223;-79
2024/03/06 00:09:26;;;;;;;11.93;9.80;;;;;;;;;;4925759;28;20315;-81
2024/03/06 00:11:52;;;;;;;11.57;9.50;;;;;;;;;;4923442;29;20216;-79
2024/03/06 00:14:21;;;;;;;12.17;9.83;;;;;;;;;;4894457;28;20223;-80
2024/03/06 00:16:52;;;;;;;11.93;10.20;;;;;;;;;;4914260;29;20282;-81
2024/03/06 00:19:18;;;;;;;12.17;10.10;;;;;;;;;;4926247;28;20255;-80
2024/03/06 00:21:44;;;;;;;11.97;9.97;;;;;;;;;;4913134;29;20227;-80
2024/03/06 00:24:14;;;;;;;12.97;10.30;;;;;;;;;;4923390;28;20708;-79
2024/03/06 00:26:47;;;;;;;11.80;9.90;;;;;;;;;;4913177;29;20216;-80
2024/03/06 00:29:12;;;;;;;14.07;9.80;;;;;;;;;;4929063;29;20231;-80
2024/03/06 00:31:42;;;;;;;11.23;9.93;;;;;;;;;;4922321;29;20234;-79
2024/03/06 00:34:08;;;;;;;13.00;10.03;;;;;;;;;;4925910;28;20227;-80
2024/03/06 00:36:33;;;;;;;13.50;10.60;;;;;;;;;;4910789;29;20231;-79
2024/03/06 00:38:59;;;;;;;12.97;9.60;;;;;;;;;;4945624;29;20779;-80
2024/03/06 00:41:31;;;;;;;11.50;10.30;;;;;;;;;;4941320;28;20211;-79
2024/03/06 00:43:59;;;;;;;12.57;10.27;;;;;;;;;;4930725;29;20228;-80
2024/03/06 00:46:25;;;;;;;13.47;9.93;;;;;;;;;;4941089;28;20282;-80
2024/03/06 00:48:50;;;;;;;13.07;10.00;;;;;;;;;;4912800;29;20246;-79
2024/03/06 00:51:16;;;;;;;13.63;10.33;;;;;;;;;;4942138;28;20245;-81
2024/03/06 00:53:44;;;;;;;12.53;10.17;;;;;;;;;;4936141;28;20224;-79
2024/03/06 00:56:09;;;;;;;12.27;9.83;;;;;;;;;;4922389;29;20713;-80
2024/03/06 00:58:35;;;;;;;12.87;9.90;;;;;;;;;;4911114;29;20232;-79
2024/03/06 01:01:06;;;;;;;14.80;10.50;;;;;;;;;;4942381;28;20222;-79
2024/03/06 01:03:34;;;;;;;12.80;10.57;;;;;;;;;;4922273;29;20216;-77
2024/03/06 01:06:02;;;;;;;11.17;9.97;;;;;;;;;;4929516;29;20223;-80
2024/03/06 01:08:27;;;;;;;13.67;10.30;;;;;;;;;;4955617;28;20238;-80
2024/03/06 01:10:53;;;;;;;13.27;9.97;;;;;;;;;;4923941;28;20226;-80
2024/03/06 01:13:24;;;;;;;11.83;10.13;;;;;;;;;;4909808;29;20300;-80
2024/03/06 01:15:49;;;;;;;12.67;10.47;;;;;;;;;;4926322;28;20237;-80
2024/03/06 01:18:17;;;;;;;13.97;10.57;;;;;;;;;;4925202;29;20234;-80
2024/03/06 01:20:44;;;;;;;14.93;10.00;;;;;;;;;;4936205;29;20233;-79
2024/03/06 01:23:10;;;;;;;13.03;10.57;;;;;;;;;;4913272;29;20237;-79
2024/03/06 01:25:38;;;;;;;12.60;10.03;;;;;;;;;;4942382;28;20228;-80
2024/03/06 01:28:04;;;;;;;13.57;10.07;;;;;;;;;;4913079;29;20262;-80
2024/03/06 01:30:31;;;;;;;14.37;11.10;;;;;;;;;;4940240;28;20227;-81
2024/03/06 01:32:57;;;;;;;11.70;10.20;;;;;;;;;;4924776;29;20239;-80
2024/03/06 01:35:27;;;;;;;14.03;10.80;;;;;;;;;;4921062;29;20237;-80
2024/03/06 01:37:53;;;;;;;12.43;10.37;;;;;;;;;;4926651;29;20231;-80
2024/03/06 01:40:21;;;;;;;16.20;10.37;;;;;;;;;;4924997;29;20330;-80
2024/03/06 01:42:48;;;;;;;14.13;10.30;;;;;;;;;;4909672;29;20227;-80
2024/03/06 01:45:16;;;;;;;14.17;11.10;;;;;;;;;;4905844;29;20220;-79
2024/03/06 01:47:50;;;;;;;13.57;10.77;;;;;;;;;;4910664;29;20224;-79
2024/03/06 01:50:16;;;;;;;17.07;11.30;;;;;;;;;;4955259;28;20216;-80
2024/03/06 01:52:43;;;;;;;12.47;10.50;;;;;;;;;;4924736;29;20722;-79
2024/03/06 01:55:09;;;;;;;11.87;10.60;;;;;;;;;;4940626;28;20570;-80
2024/03/06 01:57:38;;;;;;;11.57;10.37;;;;;;;;;;4941690;28;20239;-79
2024/03/06 02:00:04;;;;;;;12.10;10.67;;;;;;;;;;4959991;28;20265;-79
2024/03/06 02:02:30;;;;;;;14.20;11.30;;;;;;;;;;4946254;28;20223;-78
2024/03/06 02:04:57;;;;;;;16.17;10.27;;;;;;;;;;4919328;29;20257;-79
2024/03/06 02:07:25;;;;;;;14.30;10.57;;;;;;;;;;4917718;29;20633;-80
2024/03/06 02:09:52;;;;;;;13.00;11.03;;;;;;;;;;4912994;29;20290;-81
2024/03/06 02:12:18;;;;;;;15.60;10.80;;;;;;;;;;4923875;29;20218;-79
2024/03/06 02:14:46;;;;;;;13.00;10.40;;;;;;;;;;4935046;29;20245;-79
2024/03/06 02:17:13;;;;;;;11.60;10.43;;;;;;;;;;4938361;28;20685;-80
2024/03/06 02:19:42;;;;;;;11.90;9.87;;;;;;;;;;4936988;29;20296;-78
2024/03/06 02:22:08;;;;;;;12.60;10.27;;;;;;;;;;4902327;29;20225;-80
2024/03/06 02:24:34;;;;;;;12.63;10.33;;;;;;;;;;4909507;29;20230;-77
2024/03/06 02:27:02;;;;;;;12.17;10.40;;;;;;;;;;4905249;29;20220;-80
2024/03/06 02:29:28;;;;;;;12.67;10.13;;;;;;;;;;4915882;29;20246;-80
2024/03/06 02:31:58;;;;;;;13.47;10.87;;;;;;;;;;4942279;28;20228;-81
2024/03/06 02:34:25;;;;;;;11.77;10.53;;;;;;;;;;4914136;29;20231;-81
2024/03/06 02:36:51;;;;;;;13.00;10.20;;;;;;;;;;4925266;29;20239;-82
2024/03/06 02:39:21;;;;;;;13.30;10.63;;;;;;;;;;4945416;28;20254;-80
2024/03/06 02:41:48;;;;;;;14.73;11.00;;;;;;;;;;4916930;29;20727;-81
2024/03/06 02:44:15;;;;;;;13.57;11.07;;;;;;;;;;4939788;28;20227;-80
2024/03/06 02:46:45;;;;;;;12.93;11.07;;;;;;;;;;4946129;28;20222;-81
2024/03/06 02:49:14;;;;;;;14.20;10.47;;;;;;;;;;4940621;28;20592;-81
2024/03/06 02:51:42;;;;;;;13.23;10.60;;;;;;;;;;4959894;28;20216;-79
2024/03/06 02:54:10;;;;;;;11.97;10.03;;;;;;;;;;4928426;29;20243;-79
2024/03/06 02:56:35;;;;;;;12.20;10.37;;;;;;;;;;4958092;28;20227;-80
2024/03/06 02:59:04;;;;;;;15.00;10.50;;;;;;;;;;4944354;29;20235;-80
2024/03/06 03:01:32;;;;;;;13.43;11.20;;;;;;;;;;4944203;28;20247;-80
2024/03/06 03:03:57;;;;;;;14.33;10.20;;;;;;;;;;4914216;29;20302;-80
2024/03/06 03:06:25;;;;;;;11.93;10.63;;;;;;;;;;4941341;28;20294;-79
2024/03/06 03:08:51;;;;;;;12.23;10.30;;;;;;;;;;4940059;29;20228;-78
2024/03/06 03:11:23;;;;;;;12.23;10.90;;;;;;;;;;4940563;28;20583;-79
2024/03/06 03:13:51;;;;;;;14.80;10.83;;;;;;;;;;4908944;29;20251;-79
2024/03/06 03:16:20;;;;;;;13.80;10.70;;;;;;;;;;4945006;28;20227;-79
2024/03/06 03:18:46;;;;;;;14.30;10.60;;;;;;;;;;4943200;28;20882;-80
2024/03/06 03:21:14;;;;;;;12.63;10.90;;;;;;;;;;4929527;28;20711;-79
2024/03/06 03:23:39;;;;;;;13.93;10.87;;;;;;;;;;4929427;29;20226;-80
2024/03/06 03:26:10;;;;;;;13.03;10.73;;;;;;;;;;4928604;28;20276;-78
2024/03/06 03:28:39;;;;;;;15.20;10.97;;;;;;;;;;4924109;29;20226;-79
2024/03/06 03:31:08;;;;;;;13.33;10.43;;;;;;;;;;4953030;28;20680;-80
2024/03/06 03:33:38;;;;;;;13.37;11.03;;;;;;;;;;4911181;29;20234;-78
2024/03/06 03:36:07;;;;;;;14.17;11.03;;;;;;;;;;4913802;29;20334;-80
2024/03/06 03:38:38;;;;;;;13.13;10.73;;;;;;;;;;4927138;29;20246;-79
2024/03/06 03:41:07;;;;;;;15.30;10.70;;;;;;;;;;4945459;28;20254;-81
2024/03/06 03:43:35;;;;;;;14.00;10.93;;;;;;;;;;4924348;28;20235;-80
2024/03/06 03:46:06;;;;;;;14.87;11.37;;;;;;;;;;4912527;29;20223;-80
2024/03/06 03:48:32;;;;;;;16.00;11.70;;;;;;;;;;4909383;29;20279;-80
2024/03/06 03:51:00;;;;;;;13.83;10.97;;;;;;;;;;4936482;28;20235;-81
2024/03/06 03:53:30;;;;;;;13.53;11.07;;;;;;;;;;4915406;29;20227;-80
2024/03/06 03:55:58;;;;;;;13.07;10.63;;;;;;;;;;4931682;28;20235;-81
2024/03/06 04:02:10;;;;;;;14.70;11.07;;;;;;;;;;4942929;28;20600;-80
2024/03/06 04:04:35;;;;;;;12.87;10.87;;;;;;;;;;4923627;29;20240;-80
2024/03/06 04:07:10;;;;;;;12.70;10.33;;;;;;;;;;4912135;29;20653;-80
2024/03/06 04:09:38;;;;;;;12.70;11.10;;;;;;;;;;4923599;29;20247;-80
2024/03/06 04:12:04;;;;;;;15.30;11.43;;;;;;;;;;4928203;28;20231;-81
2024/03/06 04:14:32;;;;;;;15.93;11.60;;;;;;;;;;4940582;28;20271;-81
2024/03/06 04:17:05;;;;;;;13.50;11.10;;;;;;;;;;4940839;28;20234;-80
2024/03/06 04:22:11;;;;;;;14.27;10.90;;;;;;;;;;4954608;28;20227;-85
2024/03/06 04:24:42;;;;;;;16.43;11.90;;;;;;;;;;4925278;29;20287;-86
2024/03/06 04:27:07;;;;;;;13.43;11.23;;;;;;;;;;4961317;28;20222;-85
2024/03/06 04:29:33;;;;;;;14.80;11.10;;;;;;;;;;4914531;29;20235;-85
2024/03/06 04:31:59;;;;;;;13.80;11.27;;;;;;;;;;4917843;29;20333;-85
2024/03/06 04:34:27;;;;;;;14.90;11.23;;;;;;;;;;4919002;29;20227;-85
2024/03/06 04:36:52;;;;;;;14.87;10.90;;;;;;;;;;4925356;29;20223;-85
2024/03/06 04:39:18;;;;;;;13.73;11.30;;;;;;;;;;4948621;28;20261;-85
2024/03/06 04:41:45;;;;;;;12.53;11.07;;;;;;;;;;4914493;29;20289;-85
2024/03/06 04:44:11;;;;;;;14.80;11.73;;;;;;;;;;4915883;28;20226;-84
2024/03/06 04:46:37;;;;;;;15.80;11.63;;;;;;;;;;4915949;29;20236;-85
2024/03/06 04:49:05;;;;;;;15.90;11.33;;;;;;;;;;4928453;28;22222;-83
2024/03/06 04:51:30;;;;;;;14.67;11.37;;;;;;;;;;4926633;29;20309;-79
2024/03/06 04:53:56;;;;;;;16.63;11.77;;;;;;;;;;4920124;29;20266;-79
2024/03/06 04:56:22;;;;;;;14.03;11.73;;;;;;;;;;4939918;28;20226;-79
2024/03/06 04:58:47;;;;;;;15.07;10.93;;;;;;;;;;4938283;29;20351;-79
2024/03/06 05:01:13;;;;;;;16.53;11.93;;;;;;;;;;4935266;29;20219;-79
2024/03/06 05:03:41;;;;;;;13.20;11.27;;;;;;;;;;4910773;29;20219;-80
2024/03/06 05:06:08;;;;;;;16.33;12.33;;;;;;;;;;4935656;28;20231;-79
2024/03/06 05:08:34;;;;;;;14.47;11.43;;;;;;;;;;4909933;29;20614;-78
2024/03/06 05:11:02;;;;;;;16.57;11.73;;;;;;;;;;4910064;29;20232;-79
2024/03/06 05:13:30;;;;;;;14.30;11.07;;;;;;;;;;4934001;28;20238;-80
2024/03/06 05:15:58;;;;;;;15.13;11.70;;;;;;;;;;4909292;29;20226;-81
2024/03/06 05:18:25;;;;;;;14.87;11.50;;;;;;;;;;4952195;28;20266;-80
2024/03/06 05:20:54;;;;;;;15.83;12.20;;;;;;;;;;4918116;29;20232;-80
2024/03/06 05:23:24;;;;;;;15.27;11.83;;;;;;;;;;4918300;29;20228;-79
2024/03/06 05:25:50;;;;;;;14.53;11.17;;;;;;;;;;4922841;29;20227;-80
2024/03/06 05:28:18;;;;;;;16.63;11.93;;;;;;;;;;4937676;28;20218;-80
2024/03/06 05:30:46;;;;;;;13.53;11.73;;;;;;;;;;4930461;28;20241;-79
2024/03/06 05:33:11;;;;;;;15.47;11.97;;;;;;;;;;4956016;28;20229;-78
2024/03/06 05:35:39;;;;;;;16.80;11.53;;;;;;;;;;4935523;28;20606;-78
2024/03/06 05:38:06;;;;;;;15.30;11.73;;;;;;;;;;4912511;28;20295;-79
2024/03/06 05:40:37;;;;;;;16.63;11.97;;;;;;;;;;4940832;29;20289;-79
2024/03/06 05:43:03;;;;;;;17.87;12.03;;;;;;;;;;4930080;29;20224;-80
2024/03/06 05:45:31;;;;;;;16.83;12.73;;;;;;;;;;4905557;29;20228;-79
2024/03/06 05:47:58;;;;;;;15.93;12.30;;;;;;;;;;4924481;29;20224;-79
2024/03/06 05:50:25;;;;;;;16.37;12.87;;;;;;;;;;4939164;28;20274;-78
2024/03/06 05:52:50;;;;;;;15.53;12.87;;;;;;;;;;4926456;29;20664;-79
2024/03/06 05:55:21;;;;;;;15.83;11.60;;;;;;;;;;4921095;28;20210;-80
2024/03/06 05:57:47;;;;;;;15.57;12.50;;;;;;;;;;4927258;29;20321;-79
2024/03/06 06:00:18;;;;;;;14.83;12.30;;;;;;;;;;4942537;28;20232;-79
2024/03/06 06:02:45;;;;;;;17.17;12.43;;;;;;;;;;4927534;28;20228;-78
2024/03/06 06:05:11;;;;;;;15.10;12.53;;;;;;;;;;4929268;29;20216;-78
2024/03/06 06:07:37;;;;;;;17.00;12.73;;;;;;;;;;4915978;29;20227;-77
2024/03/06 06:10:08;;;;;;;17.30;12.87;;;;;;;;;;4926216;29;20239;-81
2024/03/06 06:12:36;;;;;;;17.13;12.83;;;;;;;;;;4926336;29;20223;-79
2024/03/06 06:15:04;;;;;;;17.50;13.80;;;;;;;;;;4944024;28;20258;-79
2024/03/06 06:17:30;;;;;;;18.47;13.40;;;;;;;;;;4945032;28;20223;-77
2024/03/06 06:20:00;;;;;;;16.80;12.97;;;;;;;;;;4917065;29;20232;-80
2024/03/06 06:22:31;;;;;;;18.33;13.73;;;;;;;;;;4913870;28;20234;-78
2024/03/06 06:24:58;;;;;;;17.93;12.93;;;;;;;;;;4928606;28;20236;-80
2024/03/06 06:27:25;;;;;;;18.03;13.80;;;;;;;;;;4941754;28;20296;-80
2024/03/06 06:29:50;;;;;;;15.77;13.33;;;;;;;;;;4937431;28;20290;-79
2024/03/06 06:32:18;;;;;;;19.23;13.63;;;;;;;;;;4927605;28;20224;-79
2024/03/06 06:34:45;;;;;;;16.63;13.50;;;;;;;;;;4915394;29;20268;-80
2024/03/06 06:37:10;;;;;;;18.00;13.70;;;;;;;;;;4919334;28;20235;-79
2024/03/06 06:39:36;;;;;;;19.10;14.83;;;;;;;;;;4901102;29;20239;-78
2024/03/06 06:42:06;;;;;;;16.80;13.17;;;;;;;;;;4939291;28;20335;-80
2024/03/06 06:44:34;;;;;;;18.50;13.90;;;;;;;;;;4951938;28;20896;-78
2024/03/06 06:47:04;;;;;;;18.47;14.20;;;;;;;;;;4913686;29;20231;-79
2024/03/06 06:49:32;;;;;;;19.40;14.23;;;;;;;;;;4961003;28;20240;-80
2024/03/06 06:51:58;;;;;;;18.40;14.17;;;;;;;;;;4935806;29;20725;-78
2024/03/06 06:54:26;;;;;;;18.37;14.87;;;;;;;;;;4930063;28;20323;-80
2024/03/06 06:56:51;;;;;;;17.67;14.00;;;;;;;;;;4925201;28;20228;-79
2024/03/06 06:59:17;;;;;;;18.43;15.10;;;;;;;;;;4959645;28;20285;-80
2024/03/06 07:01:45;;;;;;;19.80;15.23;;;;;;;;;;4914930;29;20226;-79
2024/03/06 07:04:11;;;;;;;20.27;14.60;;;;;;;;;;4915023;28;20291;-79
2024/03/06 07:06:39;;;;;;;18.50;14.47;;;;;;;;;;4950228;28;20227;-78
2024/03/06 07:09:04;;;;;;;16.23;13.87;;;;;;;;;;4941807;29;20228;-80
2024/03/06 07:11:30;;;;;;;18.10;14.57;;;;;;;;;;4918026;29;20233;-80
2024/03/06 07:13:56;;;;;;;22.13;15.23;;;;;;;;;;4932416;28;20676;-80
2024/03/06 07:16:21;;;;;;;19.17;14.83;;;;;;;;;;4943201;28;20685;-80
2024/03/06 07:18:47;;;;;;;18.97;14.87;;;;;;;;;;4946258;29;20227;-79
2024/03/06 07:21:15;;;;;;;17.90;14.57;;;;;;;;;;4929429;28;20224;-78
2024/03/06 07:23:44;;;;;;;17.23;14.53;;;;;;;;;;4955292;28;20310;-78
2024/03/06 07:26:10;;;;;;;18.80;14.50;;;;;;;;;;4959064;28;20226;-78
2024/03/06 07:28:37;;;;;;;19.77;14.87;;;;;;;;;;4931515;29;20228;-79
2024/03/06 07:31:06;;;;;;;18.30;14.93;;;;;;;;;;4930746;28;20231;-81
2024/03/06 07:33:37;;;;;;;16.93;14.10;;;;;;;;;;4949763;28;20232;-81
2024/03/06 07:36:03;;;;;;;21.60;15.30;;;;;;;;;;4947844;28;20234;-79
2024/03/06 07:38:29;;;;;;;19.57;14.43;;;;;;;;;;4938628;28;20227;-79
2024/03/06 07:40:54;;;;;;;21.23;14.93;;;;;;;;;;4944675;28;20265;-80
2024/03/06 07:43:23;;;;;;;16.57;14.60;;;;;;;;;;4945637;28;20243;-79
2024/03/06 07:45:51;;;;;;;20.47;15.00;;;;;;;;;;4915686;29;20256;-79
2024/03/06 07:48:17;;;;;;;19.20;14.90;;;;;;;;;;4944476;28;20218;-78
2024/03/06 07:50:42;;;;;;;18.87;14.60;;;;;;;;;;4924303;29;20235;-80
2024/03/06 07:53:08;;;;;;;18.53;14.80;;;;;;;;;;4945629;28;20344;-80
2024/03/06 07:55:33;;;;;;;18.80;14.40;;;;;;;;;;4953295;28;20238;-79
2024/03/06 07:58:01;;;;;;;18.70;15.10;;;;;;;;;;4945835;28;20238;-78
2024/03/06 08:00:27;;;;;;;18.03;14.97;;;;;;;;;;4916361;29;20521;-79
2024/03/06 08:02:52;;;;;;;20.40;16.37;;;;;;;;;;4931728;28;20239;-79
2024/03/06 08:05:21;;;;;;;17.77;14.97;;;;;;;;;;4929585;29;20220;-79
2024/03/06 08:07:49;;;;;;;18.80;15.17;;;;;;;;;;4943344;29;20228;-78
2024/03/06 08:10:16;;;;;;;17.03;14.57;;;;;;;;;;4927355;28;20223;-79
2024/03/06 08:12:42;;;;;;;19.30;16.07;;;;;;;;;;4957609;28;20923;-79
2024/03/06 08:15:12;;;;;;;20.50;16.10;;;;;;;;;;4918079;28;20963;-77
2024/03/06 08:17:43;;;;;;;19.97;16.00;;;;;;;;;;4916011;29;20226;-78
2024/03/06 08:20:09;;;;;;;17.80;15.20;;;;;;;;;;4926458;28;20226;-80
2024/03/06 08:22:38;;;;;;;17.27;15.13;;;;;;;;;;4928981;28;20231;-79
2024/03/06 08:25:07;;;;;;;17.53;14.73;;;;;;;;;;4913165;28;20627;-78
2024/03/06 08:27:38;;;;;;;18.43;14.50;;;;;;;;;;4943650;28;20415;-79
2024/03/06 08:30:06;;;;;;;16.93;15.13;;;;;;;;;;4926753;28;20605;-79
2024/03/06 08:32:37;;;;;;;19.67;14.63;;;;;;;;;;4961092;28;20223;-79
2024/03/06 08:35:05;;;;;;;18.50;14.93;;;;;;;;;;4930449;29;20293;-81
2024/03/06 08:37:34;;;;;;;18.10;14.47;;;;;;;;;;4953696;28;20292;-77
2024/03/06 08:40:00;;;;;;;17.13;13.73;;;;;;;;;;4904843;29;20243;-81
2024/03/06 08:42:25;;;;;;;15.20;13.13;;;;;;;;;;4936705;28;20322;-79
2024/03/06 08:44:51;;;;;;;15.70;12.97;;;;;;;;;;4938512;28;20253;-77
2024/03/06 08:47:16;;;;;;;15.50;13.90;;;;;;;;;;4915048;29;20599;-80
2024/03/06 08:49:42;;;;;;;15.17;13.57;;;;;;;;;;4945408;28;20334;-78
2024/03/06 08:52:10;;;;;;;16.87;13.53;;;;;;;;;;4955491;28;20253;-79
2024/03/06 08:54:36;;;;;;;15.47;13.70;;;;;;;;;;4927545;29;20504;-79
2024/03/06 08:57:02;;;;;;;18.50;13.67;;;;;;;;;;4952834;28;20232;-80
2024/03/06 08:59:29;;;;;;;15.43;13.23;;;;;;;;;;4941651;28;20224;-80
2024/03/06 09:01:56;;;;;;;17.60;13.70;;;;;;;;;;4924168;29;20676;-79
2024/03/06 09:04:26;;;;;;;14.57;12.67;;;;;;;;;;4923859;29;20223;-80
2024/03/06 09:06:54;;;;;;;15.27;12.63;;;;;;;;;;4917516;29;20335;-78
2024/03/06 09:09:22;;;;;;;14.13;11.97;;;;;;;;;;4927673;28;20343;-79
2024/03/06 09:11:48;;;;;;;14.27;11.57;;;;;;;;;;4946631;28;20641;-80
2024/03/06 09:14:14;;;;;;;15.87;12.20;;;;;;;;;;4946680;28;20228;-80
2024/03/06 09:16:39;;;;;;;14.73;11.07;;;;;;;;;;4939050;28;20274;-78
2024/03/06 09:19:05;;;;;;;12.93;11.53;;;;;;;;;;4929185;28;20803;-81
2024/03/06 09:21:30;;;;;;;13.27;11.50;;;;;;;;;;4961061;28;20223;-79
2024/03/06 09:23:56;;;;;;;12.43;11.00;;;;;;;;;;4929344;29;20219;-81
2024/03/06 09:26:24;;;;;;;14.40;10.83;;;;;;;;;;4945452;29;20265;-79
2024/03/06 09:28:52;;;;;;;12.03;10.17;;;;;;;;;;4917462;29;20234;-79
2024/03/06 09:31:17;;;;;;;12.17;10.87;;;;;;;;;;4943680;28;20223;-79
2024/03/06 09:33:43;;;;;;;13.63;10.80;;;;;;;;;;4940940;29;20236;-78
2024/03/06 09:36:13;;;;;;;13.57;10.40;;;;;;;;;;4955047;28;20223;-79
2024/03/06 09:38:41;;;;;;;12.67;10.20;;;;;;;;;;4925380;29;20231;-81
2024/03/06 09:41:07;;;;;;;12.57;10.03;;;;;;;;;;4922057;28;20223;-80
2024/03/06 09:43:35;;;;;;;13.00;9.97;;;;;;;;;;4939883;28;20698;-79
2024/03/06 09:46:05;;;;;;;11.73;10.10;;;;;;;;;;4941154;29;20238;-78
2024/03/06 09:48:32;;;;;;;14.00;10.07;;;;;;;;;;4927063;29;20641;-80
2024/03/06 09:51:02;;;;;;;12.43;10.40;;;;;;;;;;4960348;28;20674;-78
2024/03/06 09:53:27;;;;;;;12.60;10.63;;;;;;;;;;4963855;28;20261;-80
2024/03/06 09:55:53;;;;;;;12.17;10.43;;;;;;;;;;4926148;28;20601;-80
2024/03/06 09:58:19;;;;;;;11.57;9.93;;;;;;;;;;4918286;28;20313;-80
2024/03/06 10:00:46;;;;;;;11.30;9.70;;;;;;;;;;4953701;29;20238;-79
2024/03/06 10:03:12;;;;;;;12.50;10.10;;;;;;;;;;4919095;29;20238;-81
2024/03/06 10:05:38;;;;;;;12.43;10.10;;;;;;;;;;4932075;28;20234;-81
2024/03/06 10:08:04;;;;;;;11.60;9.97;;;;;;;;;;4945885;29;20219;-81
2024/03/06 10:10:30;;;;;;;11.30;10.13;;;;;;;;;;4961930;28;20223;-81
2024/03/06 10:12:57;;;;;;;12.07;10.77;;;;;;;;;;4930898;28;20235;-81
2024/03/06 10:15:23;;;;;;;14.07;10.03;;;;;;;;;;4927646;28;20228;-80
2024/03/06 10:17:49;;;;;;;11.07;10.00;;;;;;;;;;4911071;29;20347;-78
2024/03/06 10:20:28;;;;;;;13.37;10.10;;;;;;;;;;4946340;28;20331;-77
2024/03/06 10:22:54;;;;;;;11.37;10.03;;;;;;;;;;4946569;28;20254;-80
2024/03/06 10:25:22;;;;;;;13.23;10.00;;;;;;;;;;4915964;28;20763;-79
2024/03/06 10:28:13;;;;;;;12.93;10.27;;;;;;;;;;4941939;29;21232;-78
2024/03/06 10:30:41;;;;;;;12.10;9.70;;;;;;;;;;4913407;29;20242;-78
2024/03/06 10:33:07;;;;;;;12.40;9.80;;;;;;;;;;4910347;28;20229;-79
2024/03/06 10:35:37;;;;;;;11.87;10.07;;;;;;;;;;4950867;29;20239;-79
2024/03/06 10:38:04;;;;;;;9.70;8.73;;;;;;;;;;4924592;29;20235;-78
2024/03/06 10:40:35;;;;;;;10.40;9.07;;;;;;;;;;4960441;28;20226;-79
2024/03/06 10:43:02;;;;;;;11.47;9.23;;;;;;;;;;4930790;29;20227;-79
2024/03/06 10:45:48;;;;;;;11.00;9.33;;;;;;;;;;4924225;29;20230;-79
2024/03/06 10:48:14;;;;;;;10.67;9.43;;;;;;;;;;4930039;28;20301;-79
2024/03/06 10:50:46;;;;;;;12.20;9.57;;;;;;;;;;4937443;29;20230;-79
2024/03/06 10:53:21;;;;;;;12.17;9.53;;;;;;;;;;4924455;28;20230;-78
2024/03/06 10:55:49;;;;;;;10.97;9.63;;;;;;;;;;4945916;28;20650;-78
2024/03/06 10:58:19;;;;;;;12.40;9.47;;;;;;;;;;4924366;29;20239;-79
2024/03/06 11:00:48;;;;;;;11.70;9.80;;;;;;;;;;4949550;28;20257;-80
2024/03/06 11:03:14;;;;;;;10.57;9.47;;;;;;;;;;4946224;28;20219;-80
2024/03/06 11:05:46;;;;;;;12.53;9.57;;;;;;;;;;4945107;28;20243;-79
2024/03/06 11:08:13;;;;;;;11.90;9.43;;;;;;;;;;4928342;28;20211;-80
2024/03/06 11:10:40;;;;;;;13.20;10.10;;;;;;;;;;4926373;28;20242;-80
2024/03/06 11:13:20;;;;;;;10.90;9.37;;;;;;;;;;4928516;28;20230;-82
2024/03/06 11:15:49;;;;;;;13.03;9.73;;;;;;;;;;4932540;28;20242;-78
2024/03/06 11:18:30;;;;;;;12.30;9.83;;;;;;;;;;4930135;28;20223;-80
2024/03/06 11:21:08;;;;;;;13.23;10.30;;;;;;;;;;4917083;29;20236;-79
2024/03/06 11:23:34;;;;;;;11.30;9.93;;;;;;;;;;4937216;29;20774;-80
2024/03/06 11:26:03;;;;;;;11.83;10.40;;;;;;;;;;4937133;29;20224;-79
2024/03/06 11:28:34;;;;;;;11.70;10.10;;;;;;;;;;4911701;29;20292;-78
2024/03/06 11:31:20;;;;;;;11.00;9.27;;;;;;;;;;4929174;29;20227;-79
2024/03/06 11:33:46;;;;;;;11.20;9.97;;;;;;;;;;4947716;28;20232;-78
2024/03/06 11:36:30;;;;;;;13.30;9.33;;;;;;;;;;4933827;28;20211;-79
2024/03/06 11:39:07;;;;;;;15.30;10.33;;;;;;;;;;4923987;29;20229;-79
2024/03/06 11:41:45;;;;;;;12.63;10.00;;;;;;;;;;4925398;29;20235;-80
2024/03/06 11:44:17;;;;;;;11.33;10.07;;;;;;;;;;4951319;28;20891;-79
2024/03/06 11:46:58;;;;;;;10.87;9.53;;;;;;;;;;4932887;28;20219;-79
2024/03/06 11:49:25;;;;;;;10.37;9.27;;;;;;;;;;4950595;28;20284;-79
2024/03/06 11:51:55;;;;;;;11.47;9.50;;;;;;;;;;4930003;28;20227;-82
2024/03/06 11:54:25;;;;;;;13.53;9.83;;;;;;;;;;4951297;28;20656;-79
2024/03/06 11:56:54;;;;;;;10.40;9.23;;;;;;;;;;4953732;28;20226;-78
2024/03/06 11:59:24;;;;;;;10.70;9.60;;;;;;;;;;4912911;29;20228;-79
2024/03/06 12:01:51;;;;;;;12.10;10.17;;;;;;;;;;4937166;28;20687;-78
2024/03/06 12:04:18;;;;;;;11.33;9.63;;;;;;;;;;4925243;28;20228;-79
2024/03/06 12:06:47;;;;;;;12.50;9.83;;;;;;;;;;4938108;29;20230;-80
2024/03/06 12:09:12;;;;;;;15.13;9.67;;;;;;;;;;4923270;28;20650;-78
2024/03/06 12:11:38;;;;;;;12.13;9.23;;;;;;;;;;4941747;28;20231;-80
2024/03/06 12:14:03;;;;;;;12.83;10.00;;;;;;;;;;4926574;29;20713;-80
2024/03/06 12:16:29;;;;;;;10.30;9.20;;;;;;;;;;4928281;28;20290;-80
2024/03/06 12:18:58;;;;;;;12.57;9.87;;;;;;;;;;4935051;28;20236;-81
2024/03/06 12:21:32;;;;;;;10.20;9.20;;;;;;;;;;4923062;28;20230;-80
2024/03/06 12:24:06;;;;;;;11.67;9.07;;;;;;;;;;4927122;29;20223;-79
2024/03/06 12:26:31;;;;;;;10.97;9.47;;;;;;;;;;4940929;29;20231;-79
2024/03/06 12:29:05;;;;;;;14.07;9.63;;;;;;;;;;4938402;29;20232;-80
2024/03/06 12:31:39;;;;;;;10.87;9.40;;;;;;;;;;4938827;28;20222;-79
2024/03/06 12:34:07;;;;;;;12.20;10.00;;;;;;;;;;4927406;28;20366;-81
2024/03/06 12:36:32;;;;;;;11.43;10.23;;;;;;;;;;4925728;29;20243;-79
2024/03/06 12:39:12;;;;;;;12.23;9.73;;;;;;;;;;4931696;29;20236;-78
2024/03/06 12:41:41;;;;;;;11.73;10.50;;;;;;;;;;4950634;28;20617;-81
2024/03/06 12:44:07;;;;;;;13.77;10.17;;;;;;;;;;4952509;28;20215;-77
2024/03/06 12:46:32;;;;;;;12.57;10.03;;;;;;;;;;4914661;29;20666;-79
2024/03/06 12:48:58;;;;;;;10.63;9.53;;;;;;;;;;4925605;29;20235;-79
2024/03/06 12:51:26;;;;;;;12.03;9.77;;;;;;;;;;4937103;28;20365;-78
2024/03/06 12:53:52;;;;;;;12.07;10.03;;;;;;;;;;4945519;28;20226;-79
2024/03/06 12:56:18;;;;;;;11.53;9.67;;;;;;;;;;4941084;28;20687;-79
2024/03/06 12:58:49;;;;;;;11.77;10.03;;;;;;;;;;4940464;29;20238;-80
2024/03/06 13:01:16;;;;;;;12.33;10.40;;;;;;;;;;4926347;29;20220;-79
2024/03/06 13:03:44;;;;;;;13.47;9.60;;;;;;;;;;4952891;28;20239;-78
2024/03/06 13:06:10;;;;;;;11.07;9.37;;;;;;;;;;4941258;28;20220;-78
2024/03/06 13:08:36;;;;;;;12.20;9.83;;;;;;;;;;4920461;29;20228;-78
2024/03/06 13:11:01;;;;;;;11.90;10.37;;;;;;;;;;4956807;28;20231;-79
2024/03/06 13:13:29;;;;;;;11.27;9.73;;;;;;;;;;4950566;28;20238;-79
2024/03/06 13:15:55;;;;;;;12.80;9.80;;;;;;;;;;4924042;29;20238;-79
2024/03/06 13:18:23;;;;;;;12.27;9.63;;;;;;;;;;4908541;28;20229;-80
2024/03/06 13:20:49;;;;;;;12.50;9.87;;;;;;;;;;4942137;28;20235;-80
2024/03/06 13:23:14;;;;;;;12.20;10.53;;;;;;;;;;4931864;28;20610;-80
2024/03/06 13:25:43;;;;;;;11.97;10.60;;;;;;;;;;4954422;28;20235;-79
2024/03/06 13:28:12;;;;;;;16.00;10.50;;;;;;;;;;4912867;28;20215;-80
2024/03/06 13:30:40;;;;;;;13.27;10.30;;;;;;;;;;4955667;28;20699;-78
2024/03/06 13:33:07;;;;;;;11.83;10.57;;;;;;;;;;4911400;28;20678;-79
2024/03/06 13:35:33;;;;;;;11.77;10.57;;;;;;;;;;4938406;29;20353;-80
2024/03/06 13:37:58;;;;;;;14.33;10.93;;;;;;;;;;4909610;29;20282;-79
2024/03/06 13:40:25;;;;;;;13.43;11.00;;;;;;;;;;4938819;28;20223;-78
2024/03/06 13:42:51;;;;;;;12.03;10.70;;;;;;;;;;4922170;28;20323;-78
2024/03/06 13:45:19;;;;;;;20.83;15.70;;;;;;;;;;4928185;28;20672;-78
2024/03/06 13:47:44;;;;;;;12.93;10.97;;;;;;;;;;4924393;28;20234;-79
2024/03/06 13:50:11;;;;;;;14.33;11.60;;;;;;;;;;4938463;28;20307;-78
2024/03/06 13:52:37;;;;;;;12.23;10.93;;;;;;;;;;4937163;29;20243;-79
2024/03/06 13:55:05;;;;;;;13.53;10.90;;;;;;;;;;4954806;28;20638;-80
2024/03/06 13:57:34;;;;;;;13.30;10.73;;;;;;;;;;4952756;28;20226;-79
2024/03/06 14:00:12;;;;;;;12.93;11.60;;;;;;;;;;4917590;28;20250;-79
2024/03/06 14:02:39;;;;;;;17.30;11.37;;;;;;;;;;4929459;28;20635;-78
2024/03/06 14:05:06;;;;;;;12.47;11.17;;;;;;;;;;4904948;29;20285;-80
2024/03/06 14:07:32;;;;;;;13.40;11.40;;;;;;;;;;4926873;29;20235;-79
2024/03/06 14:09:58;;;;;;;13.50;10.73;;;;;;;;;;4916505;29;20263;-79
2024/03/06 14:12:23;;;;;;;14.40;11.77;;;;;;;;;;4928020;29;20240;-80
2024/03/06 14:14:54;;;;;;;13.10;10.87;;;;;;;;;;4938029;29;20242;-79
2024/03/06 14:17:22;;;;;;;13.50;11.93;;;;;;;;;;4920552;28;20219;-79
2024/03/06 14:19:48;;;;;;;13.27;10.93;;;;;;;;;;4925288;29;21361;-79
2024/03/06 14:22:16;;;;;;;14.13;11.30;;;;;;;;;;4921837;28;20227;-79
2024/03/06 14:24:42;;;;;;;14.27;11.97;;;;;;;;;;4933919;28;20227;-80
2024/03/06 14:27:07;;;;;;;13.70;12.17;;;;;;;;;;4921759;28;20232;-78
2024/03/06 14:29:33;;;;;;;12.87;11.47;;;;;;;;;;4921051;29;20688;-79